createdAt,value
2022-11-24T00:01:12.274Z,0.10
2022-11-24T00:03:39.306Z,0.10
2022-11-24T00:06:08.878Z,0.20
2022-11-24T00:08:37.160Z,0.30
2022-11-24T00:11:15.553Z,0.30
2022-11-24T00:13:42.658Z,0.40
2022-11-24T00:16:19.678Z,0.40
2022-11-24T00:18:48.387Z,0.40
2022-11-24T00:21:17.027Z,0.50
2022-11-24T00:23:44.820Z,0.50
2022-11-24T00:26:13.872Z,0.60
2022-11-24T00:28:42.250Z,0.60
2022-11-24T00:31:39.791Z,0.70
2022-11-24T00:34:10.128Z,0.80
2022-11-24T00:36:37.814Z,0.80
2022-11-24T00:39:15.611Z,0.80
2022-11-24T00:41:43.458Z,0.70
2022-11-24T00:44:10.425Z,0.80
2022-11-24T00:46:37.670Z,0.80
2022-11-24T00:49:04.978Z,0.80
2022-11-24T00:51:32.994Z,0.90
2022-11-24T00:54:01.033Z,0.90
2022-11-24T00:56:29.679Z,0.90
2022-11-24T00:58:56.558Z,0.90
2022-11-24T01:01:26.070Z,0.90
2022-11-24T01:03:55.273Z,0.80
2022-11-24T01:06:24.345Z,0.90
2022-11-24T01:08:51.586Z,0.80
2022-11-24T01:11:22.404Z,0.80
2022-11-24T01:13:53.133Z,0.80
2022-11-24T01:16:23.444Z,0.80
2022-11-24T01:18:50.587Z,0.80
2022-11-24T01:21:18.166Z,0.80
2022-11-24T01:23:45.281Z,0.80
2022-11-24T01:26:15.153Z,0.80
2022-11-24T01:28:46.969Z,0.80
2022-11-24T01:31:14.680Z,0.80
2022-11-24T01:33:41.538Z,0.80
2022-11-24T01:36:08.373Z,0.80
2022-11-24T01:38:35.234Z,0.70
2022-11-24T01:41:13.924Z,0.70
2022-11-24T01:43:42.086Z,0.80
2022-11-24T01:46:18.909Z,0.70
2022-11-24T01:49:09.221Z,0.70
2022-11-24T01:51:50.257Z,0.70
2022-11-24T01:54:37.852Z,0.70
2022-11-24T01:57:17.985Z,0.70
2022-11-24T01:59:48.898Z,0.70
2022-11-24T02:02:21.262Z,0.70
2022-11-24T02:04:48.899Z,0.70
2022-11-24T02:07:16.368Z,0.70
2022-11-24T02:09:56.977Z,0.70
2022-11-24T02:12:26.692Z,0.80
2022-11-24T02:14:54.970Z,0.70
2022-11-24T02:17:22.176Z,0.70
2022-11-24T02:19:58.898Z,0.70
2022-11-24T02:22:47.142Z,0.70
2022-11-24T02:25:23.619Z,0.80
2022-11-24T02:27:54.146Z,0.70
2022-11-24T02:30:21.320Z,0.70
2022-11-24T02:32:48.367Z,0.70
2022-11-24T02:35:15.685Z,0.70
2022-11-24T02:37:42.755Z,0.80
2022-11-24T02:40:10.202Z,0.80
2022-11-24T02:42:43.011Z,0.70
2022-11-24T02:45:11.367Z,0.80
2022-11-24T02:47:38.130Z,0.80
2022-11-24T02:50:05.312Z,0.80
2022-11-24T02:52:32.082Z,0.80
2022-11-24T02:54:58.844Z,0.70
2022-11-24T02:57:25.942Z,0.80
2022-11-24T02:59:52.770Z,0.80
2022-11-24T03:02:19.563Z,0.70
2022-11-24T03:04:46.374Z,0.70
2022-11-24T03:07:13.263Z,0.70
2022-11-24T03:09:40.147Z,0.70
2022-11-24T03:12:07.098Z,0.70
2022-11-24T03:14:34.158Z,0.60
2022-11-24T03:17:01.732Z,0.60
2022-11-24T03:19:28.475Z,0.60
2022-11-24T03:21:55.262Z,0.60
2022-11-24T03:24:22.204Z,0.50
2022-11-24T03:26:48.961Z,0.60
2022-11-24T03:29:15.812Z,0.60
2022-11-24T03:31:42.966Z,0.50
2022-11-24T03:34:09.848Z,0.60
2022-11-24T03:36:36.643Z,0.60
2022-11-24T03:39:03.930Z,0.60
2022-11-24T03:41:30.676Z,0.50
2022-11-24T03:43:57.646Z,0.60
2022-11-24T03:46:24.612Z,0.50
2022-11-24T03:48:51.432Z,0.50
2022-11-24T03:51:18.194Z,0.50
2022-11-24T03:53:44.970Z,0.50
2022-11-24T03:56:11.740Z,0.60
2022-11-24T03:58:38.556Z,0.60
2022-11-24T04:01:05.312Z,0.60
2022-11-24T04:03:32.123Z,0.50
2022-11-24T04:05:58.933Z,0.50
2022-11-24T04:08:25.705Z,0.50
2022-11-24T04:10:54.384Z,0.50
2022-11-24T04:13:24.362Z,0.50
2022-11-24T04:15:51.778Z,0.50
2022-11-24T04:18:19.008Z,0.50
2022-11-24T04:20:46.137Z,0.50
2022-11-24T04:23:13.001Z,0.50
2022-11-24T04:25:41.512Z,0.50
2022-11-24T04:28:09.277Z,0.50
2022-11-24T04:30:38.491Z,0.50
2022-11-24T04:33:05.392Z,0.50
2022-11-24T04:35:32.197Z,0.50
2022-11-24T04:38:02.862Z,0.50
2022-11-24T04:40:30.091Z,0.50
2022-11-24T04:42:57.193Z,0.50
2022-11-24T04:45:24.401Z,0.40
2022-11-24T04:47:51.217Z,0.50
2022-11-24T04:50:18.366Z,0.50
2022-11-24T04:52:45.138Z,0.40
2022-11-24T04:55:11.966Z,0.50
2022-11-24T04:57:38.853Z,0.40
2022-11-24T05:00:06.640Z,0.40
2022-11-24T05:02:33.441Z,0.30
2022-11-24T05:05:00.264Z,0.30
2022-11-24T05:07:27.112Z,0.30
2022-11-24T05:10:12.408Z,0.30
2022-11-24T05:12:39.657Z,0.30
2022-11-24T05:15:07.705Z,0.40
2022-11-24T05:17:37.036Z,0.30
2022-11-24T05:20:05.997Z,0.40
2022-11-24T05:22:32.827Z,0.40
2022-11-24T05:24:59.727Z,0.30
2022-11-24T05:27:26.590Z,0.30
2022-11-24T05:29:53.356Z,0.40
2022-11-24T05:32:20.236Z,0.30
2022-11-24T05:34:47.294Z,0.30
2022-11-24T05:37:14.207Z,0.30
2022-11-24T05:39:40.982Z,0.30
2022-11-24T05:42:27.353Z,0.20
2022-11-24T05:44:54.257Z,0.20
2022-11-24T05:47:21.831Z,0.20
2022-11-24T05:49:49.030Z,0.10
2022-11-24T05:52:16.551Z,0.10
2022-11-24T05:54:43.461Z,0.10
2022-11-24T05:57:10.268Z,0.20
2022-11-24T05:59:37.109Z,0.10
2022-11-24T06:02:04.017Z,0.20
2022-11-24T06:04:32.166Z,0.20
2022-11-24T06:06:59.314Z,0.10
2022-11-24T06:09:26.099Z,0.10
2022-11-24T06:11:53.124Z,0.10
2022-11-24T06:14:19.904Z,0.10
2022-11-24T06:16:47.233Z,0.10
2022-11-24T06:19:14.166Z,0.10
2022-11-24T06:21:40.927Z,0.00
2022-11-24T06:24:08.079Z,0.00
2022-11-24T06:26:35.011Z,0.00
2022-11-24T06:29:01.830Z,0.00
2022-11-24T06:31:28.752Z,0.10
2022-11-24T06:33:55.820Z,0.00
2022-11-24T06:36:22.681Z,0.00
2022-11-24T06:38:49.486Z,0.00
2022-11-24T06:41:17.254Z,0.00
2022-11-24T06:43:45.839Z,0.00
2022-11-24T06:46:13.275Z,0.00
2022-11-24T06:48:40.108Z,0.00
2022-11-24T06:51:09.058Z,0.00
2022-11-24T06:53:38.352Z,0.10
2022-11-24T06:56:16.375Z,0.00
2022-11-24T06:58:52.180Z,0.00
2022-11-24T07:01:24.673Z,0.00
2022-11-24T07:03:52.970Z,0.00
2022-11-24T07:06:20.643Z,0.10
2022-11-24T07:08:47.896Z,0.00
2022-11-24T07:11:20.670Z,0.00
2022-11-24T07:13:48.019Z,0.00
2022-11-24T07:16:25.683Z,0.20
2022-11-24T07:18:53.765Z,0.10
2022-11-24T07:21:22.289Z,0.10
2022-11-24T07:23:50.691Z,0.10
2022-11-24T07:26:18.029Z,0.20
2022-11-24T07:28:45.463Z,0.20
2022-11-24T07:31:18.867Z,0.20
2022-11-24T07:33:53.511Z,0.30
2022-11-24T07:36:21.455Z,0.20
2022-11-24T07:38:48.292Z,0.20
2022-11-24T07:41:16.659Z,0.20
2022-11-24T07:43:43.629Z,0.20
2022-11-24T07:46:12.570Z,0.30
2022-11-24T07:48:39.667Z,0.30
2022-11-24T07:51:07.223Z,0.40
2022-11-24T07:53:34.658Z,0.50
2022-11-24T07:56:03.555Z,0.50
2022-11-24T07:58:33.352Z,0.50
2022-11-24T08:01:01.142Z,0.60
2022-11-24T08:03:28.221Z,0.60
2022-11-24T08:08:43.472Z,0.70
2022-11-24T08:11:13.883Z,0.70
2022-11-24T08:13:41.153Z,0.70
2022-11-24T08:16:11.433Z,0.70
2022-11-24T08:18:38.958Z,0.70
2022-11-24T08:21:07.000Z,0.70
2022-11-24T08:23:34.990Z,0.70
2022-11-24T08:26:10.792Z,0.80
2022-11-24T08:28:38.230Z,0.80
2022-11-24T08:31:10.395Z,0.80
2022-11-24T08:33:37.842Z,0.80
2022-11-24T08:36:13.464Z,0.80
2022-11-24T08:38:41.271Z,0.80
2022-11-24T08:41:13.344Z,0.90
2022-11-24T08:43:40.448Z,0.90
2022-11-24T08:46:09.872Z,1.00
2022-11-24T08:48:37.039Z,1.00
2022-11-24T08:51:15.868Z,1.00
2022-11-24T08:53:43.448Z,1.00
2022-11-24T08:56:11.375Z,1.10
2022-11-24T08:58:38.865Z,1.10
2022-11-24T09:01:14.316Z,1.10
2022-11-24T09:03:46.619Z,1.10
2022-11-24T09:06:25.291Z,1.10
2022-11-24T09:08:54.516Z,1.20
2022-11-24T09:11:22.261Z,1.20
2022-11-24T09:13:49.398Z,1.20
2022-11-24T09:16:21.845Z,1.30
2022-11-24T09:18:54.598Z,1.40
2022-11-24T09:21:22.300Z,1.40
2022-11-24T09:23:51.385Z,1.50
2022-11-24T09:26:29.461Z,1.50
2022-11-24T09:28:57.603Z,1.50
2022-11-24T09:31:29.962Z,1.50
2022-11-24T09:33:57.684Z,1.50
2022-11-24T09:36:24.620Z,1.50
2022-11-24T09:38:51.514Z,1.60
2022-11-24T09:41:18.285Z,1.70
2022-11-24T09:44:06.278Z,1.60
2022-11-24T09:46:41.032Z,1.70
2022-11-24T09:49:14.244Z,1.80
2022-11-24T09:51:44.307Z,1.90
2022-11-24T09:54:20.557Z,1.90
2022-11-24T09:56:49.035Z,2.00
2022-11-24T09:59:19.845Z,2.10
2022-11-24T10:01:48.000Z,2.10
2022-11-24T10:04:34.158Z,2.00
2022-11-24T10:07:22.776Z,2.10
2022-11-24T10:10:25.422Z,2.20
2022-11-24T10:13:07.877Z,2.20
2022-11-24T10:16:05.277Z,2.20
2022-11-24T10:18:49.333Z,2.30
2022-11-24T10:22:06.096Z,2.30
2022-11-24T10:24:38.339Z,2.30
2022-11-24T10:27:15.869Z,2.40
2022-11-24T10:29:43.995Z,2.40
2022-11-24T10:32:36.097Z,2.50
2022-11-24T10:35:20.655Z,2.60
2022-11-24T10:38:21.416Z,2.70
2022-11-24T10:40:58.017Z,2.60
2022-11-24T10:43:27.865Z,2.70
2022-11-24T10:46:09.063Z,2.80
2022-11-24T10:48:47.802Z,2.90
2022-11-24T10:51:40.953Z,2.90
2022-11-24T10:54:16.502Z,2.90
2022-11-24T10:56:44.952Z,3.00
2022-11-24T10:59:38.007Z,3.10
2022-11-24T11:02:30.314Z,3.10
2022-11-24T11:04:57.617Z,3.20
2022-11-24T11:07:26.859Z,3.20
2022-11-24T11:10:22.917Z,3.20
2022-11-24T11:12:49.989Z,3.40
2022-11-24T11:15:26.469Z,3.40
2022-11-24T11:18:00.978Z,3.50
2022-11-24T11:20:33.655Z,3.40
2022-11-24T11:23:04.907Z,3.40
2022-11-24T11:25:36.328Z,3.50
2022-11-24T11:28:23.006Z,3.60
2022-11-24T11:31:20.079Z,3.60
2022-11-24T11:34:03.888Z,3.70
2022-11-24T11:36:33.354Z,3.70
2022-11-24T11:39:00.829Z,3.80
2022-11-24T11:41:41.023Z,3.70
2022-11-24T11:44:26.728Z,3.80
2022-11-24T11:46:58.633Z,3.90
2022-11-24T11:49:25.575Z,3.90
2022-11-24T11:51:55.190Z,4.00
2022-11-24T11:54:43.041Z,4.00
2022-11-24T11:58:11.270Z,4.10
2022-11-24T12:00:45.282Z,4.10
2022-11-24T12:03:34.957Z,4.20
2022-11-24T12:06:09.841Z,4.10
2022-11-24T12:09:20.368Z,4.00
2022-11-24T12:12:16.995Z,4.10
2022-11-24T12:15:17.685Z,4.20
2022-11-24T12:17:57.398Z,4.20
2022-11-24T12:20:51.998Z,4.20
2022-11-24T12:23:56.486Z,4.30
2022-11-24T12:26:39.321Z,4.30
2022-11-24T12:29:15.236Z,4.20
2022-11-24T12:32:04.136Z,4.30
2022-11-24T12:34:58.710Z,4.30
2022-11-24T12:37:52.692Z,4.40
2022-11-24T12:40:46.660Z,4.40
2022-11-24T12:43:30.058Z,4.40
2022-11-24T12:46:17.225Z,4.40
2022-11-24T12:49:00.907Z,4.60
2022-11-24T12:51:35.272Z,4.70
2022-11-24T12:54:05.812Z,5.00
2022-11-24T12:56:45.314Z,5.10
2022-11-24T12:59:14.811Z,5.10
2022-11-24T13:02:14.753Z,5.00
2022-11-24T13:04:51.399Z,5.00
2022-11-24T13:07:45.027Z,5.00
2022-11-24T13:10:53.640Z,5.00
2022-11-24T13:13:15.294Z,5.00
2022-11-24T13:16:28.517Z,5.00
2022-11-24T13:19:00.784Z,5.00
2022-11-24T13:21:42.953Z,5.00
2022-11-24T13:24:19.807Z,5.00
2022-11-24T13:26:49.936Z,5.00
2022-11-24T13:29:30.264Z,5.00
2022-11-24T13:32:03.154Z,5.00
2022-11-24T13:34:39.081Z,5.00
2022-11-24T13:37:34.243Z,5.00
2022-11-24T13:40:22.932Z,5.00
2022-11-24T13:43:10.044Z,5.10
2022-11-24T13:45:39.868Z,5.00
2022-11-24T13:48:20.313Z,5.00
2022-11-24T13:50:50.170Z,5.00
2022-11-24T13:53:38.764Z,5.00
2022-11-24T13:56:17.365Z,5.00
2022-11-24T13:58:52.892Z,5.00
2022-11-24T14:01:23.622Z,5.00
2022-11-24T14:04:36.265Z,5.00
2022-11-24T14:07:09.067Z,5.00
2022-11-24T14:09:45.759Z,5.00
2022-11-24T14:12:20.311Z,4.90
2022-11-24T14:14:52.433Z,4.90
2022-11-24T14:17:28.097Z,5.00
2022-11-24T14:19:56.732Z,4.90
2022-11-24T14:22:34.818Z,4.90
2022-11-24T14:25:03.007Z,4.90
2022-11-24T14:27:36.897Z,4.90
2022-11-24T14:30:24.478Z,4.80
2022-11-24T14:33:02.611Z,4.70
2022-11-24T14:35:32.248Z,4.70
2022-11-24T14:38:04.410Z,4.60
2022-11-24T14:40:48.427Z,4.60
2022-11-24T14:43:31.524Z,4.60
2022-11-24T14:46:03.927Z,4.60
2022-11-24T14:48:33.782Z,4.50
2022-11-24T14:51:26.006Z,4.50
2022-11-24T14:53:56.350Z,4.50
2022-11-24T14:56:32.550Z,4.50
2022-11-24T14:58:59.393Z,4.50
2022-11-24T15:01:31.445Z,4.50
2022-11-24T15:04:32.852Z,4.50
2022-11-24T15:07:21.320Z,4.40
2022-11-24T15:09:48.093Z,4.40
2022-11-24T15:12:28.659Z,4.40
2022-11-24T15:15:00.458Z,4.40
2022-11-24T15:17:29.400Z,4.40
2022-11-24T15:20:16.425Z,4.40
2022-11-24T15:22:46.319Z,4.40
2022-11-24T15:25:26.556Z,4.40
2022-11-24T15:27:53.579Z,4.40
2022-11-24T15:30:20.978Z,4.40
2022-11-24T15:32:58.764Z,4.40
2022-11-24T15:35:30.788Z,4.40
2022-11-24T15:37:59.079Z,4.40
2022-11-24T15:40:25.897Z,4.30
2022-11-24T15:42:59.656Z,4.30
2022-11-24T15:45:30.148Z,4.30
2022-11-24T15:47:56.940Z,4.30
2022-11-24T15:50:23.785Z,4.20
2022-11-24T15:52:50.751Z,4.20
2022-11-24T15:55:22.316Z,4.30
2022-11-24T15:57:49.453Z,4.20
2022-11-24T16:00:21.800Z,4.20
2022-11-24T16:02:48.715Z,4.20
2022-11-24T16:05:17.232Z,4.20
2022-11-24T16:07:44.718Z,4.20
2022-11-24T16:10:31.634Z,4.20
2022-11-24T16:12:58.457Z,4.20
2022-11-24T16:15:25.233Z,4.20
2022-11-24T16:17:52.289Z,4.20
2022-11-24T16:20:19.514Z,4.20
2022-11-24T16:22:46.566Z,4.20
2022-11-24T16:25:14.059Z,4.20
2022-11-24T16:27:41.212Z,4.20
2022-11-24T16:30:10.769Z,4.20
2022-11-24T16:32:37.651Z,4.10
2022-11-24T16:35:05.966Z,4.10
2022-11-24T16:37:33.095Z,4.10
2022-11-24T16:40:01.602Z,4.10
2022-11-24T16:42:28.994Z,4.10
2022-11-24T16:44:55.788Z,4.00
2022-11-24T16:47:22.973Z,3.90
2022-11-24T16:49:49.781Z,3.90
2022-11-24T16:52:16.943Z,3.90
2022-11-24T16:54:45.443Z,3.80
2022-11-24T16:57:14.945Z,3.80
2022-11-24T16:59:46.203Z,3.70
2022-11-24T17:02:13.751Z,3.70
2022-11-24T17:04:40.643Z,3.60
2022-11-24T17:07:07.894Z,3.60
2022-11-24T17:09:40.099Z,3.60
2022-11-24T17:12:07.607Z,3.60
2022-11-24T17:14:34.975Z,3.50
2022-11-24T17:17:05.158Z,3.50
2022-11-24T17:19:32.198Z,3.50
2022-11-24T17:21:59.298Z,3.50
2022-11-24T17:24:26.310Z,3.40
2022-11-24T17:26:53.298Z,3.30
2022-11-24T17:29:20.150Z,3.30
2022-11-24T17:31:47.558Z,3.30
2022-11-24T17:34:14.607Z,3.30
2022-11-24T17:36:44.596Z,3.30
2022-11-24T17:39:11.591Z,3.30
2022-11-24T17:41:38.664Z,3.30
2022-11-24T17:44:07.412Z,3.40
2022-11-24T17:46:34.740Z,3.40
2022-11-24T17:49:01.703Z,3.40
2022-11-24T17:51:28.540Z,3.40
2022-11-24T17:53:57.434Z,3.50
2022-11-24T17:56:28.120Z,3.50
2022-11-24T17:58:57.182Z,3.50
2022-11-24T18:01:26.005Z,3.40
2022-11-24T18:03:54.223Z,3.50
2022-11-24T18:06:24.952Z,3.60
2022-11-24T18:08:53.190Z,3.60
2022-11-24T18:11:31.424Z,3.50
2022-11-24T18:14:01.950Z,3.60
2022-11-24T18:16:31.062Z,3.50
2022-11-24T18:19:08.288Z,3.50
2022-11-24T18:21:39.829Z,3.50
2022-11-24T18:24:07.952Z,3.50
2022-11-24T18:26:34.894Z,3.50
2022-11-24T18:29:01.778Z,3.50
2022-11-24T18:31:29.510Z,3.50
2022-11-24T18:33:56.696Z,3.60
2022-11-24T18:36:29.875Z,3.50
2022-11-24T18:39:00.129Z,3.50
2022-11-24T18:41:27.123Z,3.50
2022-11-24T18:43:53.876Z,3.50
2022-11-24T18:46:20.840Z,3.50
2022-11-24T18:48:47.724Z,3.40
2022-11-24T18:51:14.857Z,3.40
2022-11-24T18:53:43.158Z,3.30
2022-11-24T18:56:15.306Z,3.30
2022-11-24T18:58:42.925Z,3.30
2022-11-24T19:01:16.908Z,3.30
2022-11-24T19:03:49.426Z,3.30
2022-11-24T19:06:19.798Z,3.30
2022-11-24T19:08:47.318Z,3.20
2022-11-24T19:11:23.970Z,3.10
2022-11-24T19:13:51.078Z,3.10
2022-11-24T19:16:19.948Z,3.10
2022-11-24T19:18:53.738Z,3.00
2022-11-24T19:21:21.786Z,3.00
2022-11-24T19:23:49.160Z,2.90
2022-11-24T19:26:16.023Z,2.90
2022-11-24T19:28:42.909Z,2.90
2022-11-24T19:31:12.507Z,2.80
2022-11-24T19:33:40.136Z,2.70
2022-11-24T19:36:10.680Z,2.70
2022-11-24T19:38:38.000Z,2.50
2022-11-24T19:41:07.006Z,2.50
2022-11-24T19:43:34.554Z,2.50
2022-11-24T19:46:03.016Z,2.50
2022-11-24T19:48:34.591Z,2.60
2022-11-24T19:51:03.281Z,2.60
2022-11-24T19:53:30.823Z,2.60
2022-11-24T19:56:08.843Z,2.50
2022-11-24T19:58:36.525Z,2.40
2022-11-24T20:01:07.820Z,2.40
2022-11-24T20:03:35.623Z,2.30
2022-11-24T20:06:02.511Z,2.30
2022-11-24T20:08:34.150Z,2.20
2022-11-24T20:11:05.010Z,2.10
2022-11-24T20:13:33.874Z,2.00
2022-11-24T20:16:12.704Z,2.10
2022-11-24T20:18:44.152Z,2.00
2022-11-24T20:21:20.600Z,2.00
2022-11-24T20:23:54.000Z,1.90
2022-11-24T20:26:23.047Z,2.00
2022-11-24T20:28:51.519Z,2.00
2022-11-24T20:31:21.023Z,1.90
2022-11-24T20:33:47.964Z,2.00
2022-11-24T20:36:20.732Z,1.90
2022-11-24T20:38:49.168Z,2.00
2022-11-24T20:41:20.560Z,1.80
2022-11-24T20:43:48.428Z,1.90
2022-11-24T20:46:18.425Z,2.00
2022-11-24T20:48:46.320Z,1.90
2022-11-24T20:51:16.361Z,1.90
2022-11-24T20:53:43.674Z,1.90
2022-11-24T20:56:14.036Z,1.90
2022-11-24T20:58:40.910Z,1.90
2022-11-24T21:01:13.661Z,1.90
2022-11-24T21:03:43.439Z,1.90
2022-11-24T21:06:12.762Z,1.80
2022-11-24T21:08:41.682Z,1.80
2022-11-24T21:11:11.400Z,1.80
2022-11-24T21:13:40.256Z,1.80
2022-11-24T21:16:26.778Z,1.80
2022-11-24T21:18:57.489Z,1.70
2022-11-24T21:21:27.134Z,1.70
2022-11-24T21:23:53.924Z,1.70
2022-11-24T21:26:20.728Z,1.70
2022-11-24T21:28:48.152Z,1.70
2022-11-24T21:31:21.109Z,1.70
2022-11-24T21:33:49.963Z,1.70
2022-11-24T21:36:19.475Z,1.80
2022-11-24T21:38:51.530Z,1.80
2022-11-24T21:41:18.884Z,1.80
2022-11-24T21:43:45.777Z,1.80
2022-11-24T21:46:13.474Z,1.80
2022-11-24T21:48:41.824Z,1.80
2022-11-24T21:51:14.758Z,1.90
2022-11-24T21:53:42.649Z,1.90
2022-11-24T21:56:15.410Z,1.90
2022-11-24T21:58:57.270Z,1.90
2022-11-24T22:01:27.367Z,1.90
2022-11-24T22:03:54.795Z,2.00
2022-11-24T22:06:21.965Z,2.00
2022-11-24T22:08:49.464Z,2.10
2022-11-24T22:11:22.111Z,2.20
2022-11-24T22:13:49.761Z,2.20
2022-11-24T22:16:19.383Z,2.20
2022-11-24T22:18:46.724Z,2.30
2022-11-24T22:21:16.126Z,2.30
2022-11-24T22:23:43.503Z,2.30
2022-11-24T22:26:18.968Z,2.30
2022-11-24T22:28:46.214Z,2.30
2022-11-24T22:31:15.762Z,2.30
2022-11-24T22:33:43.744Z,2.30
2022-11-24T22:36:12.068Z,2.20
2022-11-24T22:38:39.633Z,2.20
2022-11-24T22:41:11.750Z,2.20
2022-11-24T22:43:40.293Z,2.20
2022-11-24T22:46:12.520Z,2.30
2022-11-24T22:48:40.087Z,2.20
2022-11-24T22:51:09.767Z,2.30
2022-11-24T22:53:37.174Z,2.30
2022-11-24T22:56:06.098Z,2.30
2022-11-24T22:58:33.823Z,2.40
2022-11-24T23:01:22.244Z,2.40
2022-11-24T23:03:49.989Z,2.40
2022-11-24T23:06:20.360Z,2.40
2022-11-24T23:08:47.661Z,2.40
2022-11-24T23:11:22.920Z,2.50
2022-11-24T23:13:54.476Z,2.40
2022-11-24T23:16:21.632Z,2.50
2022-11-24T23:18:53.712Z,2.40
2022-11-24T23:21:25.541Z,2.50
2022-11-24T23:23:53.019Z,2.50
2022-11-24T23:26:22.634Z,2.50
2022-11-24T23:28:49.761Z,2.50
2022-11-24T23:31:19.290Z,2.50
2022-11-24T23:33:46.189Z,2.50
2022-11-24T23:36:15.613Z,2.50
2022-11-24T23:38:43.092Z,2.50
2022-11-24T23:41:12.560Z,2.50
2022-11-24T23:43:41.651Z,2.50
2022-11-24T23:46:15.196Z,2.60
2022-11-24T23:48:42.562Z,2.60
2022-11-24T23:51:19.347Z,2.50
2022-11-24T23:53:47.034Z,2.50
2022-11-24T23:56:22.957Z,2.50
2022-11-24T23:58:50.087Z,2.50
